Time;durP1;ratioP1;P1;durP2;ratioP2;P2;SDS_P1;SDS_P2;PMS_P1;PMS_P2;Temp;Humidity;BMP_temperature;BMP_pressure;BME280_temperature;BME280_humidity;BME280_pressure;Samples;Min_cycle;Max_cycle;Signal;HPM_P1;HPM_P2
2021/06/07 00:01:35;;;;;;;28.70;25.97;;;16.00;99.90;;;;;;4978357;28;20935;-56
2021/06/07 00:04:03;;;;;;;29.37;26.40;;;16.00;99.90;;;;;;4970562;28;20457;-58
2021/06/07 00:06:29;;;;;;;29.80;26.90;;;16.00;99.90;;;;;;4978067;28;20469;-51
2021/06/07 00:08:58;;;;;;;29.37;26.67;;;15.90;99.90;;;;;;4977662;28;20461;-49
2021/06/07 00:11:26;;;;;;;29.20;26.53;;;15.90;99.90;;;;;;4978336;28;20746;-49
2021/06/07 00:13:55;;;;;;;29.10;26.40;;;15.90;99.90;;;;;;4977585;28;20496;-57
2021/06/07 00:16:23;;;;;;;28.13;25.47;;;15.80;99.90;;;;;;4978526;28;20459;-58
2021/06/07 00:18:52;;;;;;;29.97;26.87;;;15.70;99.90;;;;;;4977663;28;20909;-55
2021/06/07 00:21:21;;;;;;;29.33;26.33;;;15.80;99.90;;;;;;4979430;28;20489;-57
2021/06/07 00:23:49;;;;;;;32.00;29.00;;;15.80;99.90;;;;;;4981680;28;20466;-58
2021/06/07 00:26:18;;;;;;;30.17;27.17;;;15.80;99.90;;;;;;5002415;28;20460;-58
2021/06/07 00:28:45;;;;;;;30.07;26.97;;;15.70;99.90;;;;;;4997777;28;20486;-48
2021/06/07 00:31:13;;;;;;;31.50;28.30;;;15.80;99.90;;;;;;5003477;28;20460;-57
2021/06/07 00:33:42;;;;;;;29.03;26.07;;;15.80;99.90;;;;;;5017394;28;20443;-49
2021/06/07 00:36:11;;;;;;;31.07;27.97;;;15.80;99.90;;;;;;5016507;28;20864;-55
2021/06/07 00:38:38;;;;;;;30.30;27.40;;;15.80;99.90;;;;;;5009331;28;20453;-53
2021/06/07 00:41:07;;;;;;;31.57;28.43;;;15.80;99.90;;;;;;4997139;28;20504;-53
2021/06/07 00:43:35;;;;;;;34.57;31.17;;;15.70;99.90;;;;;;4997227;28;20464;-52
2021/06/07 00:46:06;;;;;;;30.73;27.50;;;15.70;99.90;;;;;;4997129;28;20770;-50
2021/06/07 00:48:33;;;;;;;30.40;27.50;;;15.70;99.90;;;;;;4997476;28;20444;-56
2021/06/07 00:51:05;;;;;;;34.10;30.80;;;15.70;99.90;;;;;;4997789;28;20457;-53
2021/06/07 00:53:32;;;;;;;31.20;28.17;;;15.70;99.90;;;;;;4997751;28;20543;-52
2021/06/07 00:56:04;;;;;;;32.60;29.30;;;15.80;99.90;;;;;;4997005;28;20464;-54
2021/06/07 00:58:32;;;;;;;31.87;28.67;;;15.70;99.90;;;;;;5014511;28;20460;-54
2021/06/07 01:01:02;;;;;;;32.70;29.60;;;15.70;99.90;;;;;;5020719;28;20471;-50
2021/06/07 01:03:29;;;;;;;30.93;27.77;;;15.70;99.90;;;;;;5020319;28;20901;-54
2021/06/07 01:05:56;;;;;;;32.17;28.90;;;15.80;99.90;;;;;;4997813;28;20476;-56
2021/06/07 01:08:28;;;;;;;33.83;30.57;;;15.80;99.90;;;;;;4999736;28;20796;-58
2021/06/07 01:10:55;;;;;;;31.60;28.30;;;15.80;99.90;;;;;;5000270;28;20460;-58
2021/06/07 01:13:22;;;;;;;30.90;28.07;;;15.80;99.90;;;;;;5000537;28;20465;-58
2021/06/07 01:15:51;;;;;;;33.23;29.97;;;15.70;99.90;;;;;;4999955;28;20439;-58
2021/06/07 01:18:20;;;;;;;32.53;29.03;;;15.80;99.90;;;;;;5000921;28;20464;-58
2021/06/07 01:20:48;;;;;;;31.03;27.77;;;15.70;99.90;;;;;;5000719;28;20488;-58
2021/06/07 01:23:16;;;;;;;32.40;29.50;;;15.70;99.90;;;;;;4999894;28;20772;-54
2021/06/07 01:25:48;;;;;;;32.90;29.67;;;15.70;99.90;;;;;;5000233;28;20467;-55
2021/06/07 01:28:17;;;;;;;31.33;28.20;;;15.70;99.90;;;;;;5000415;28;20469;-54
2021/06/07 01:30:45;;;;;;;33.23;29.90;;;15.70;99.90;;;;;;5000047;28;20431;-51
2021/06/07 01:33:14;;;;;;;35.00;31.30;;;15.60;99.90;;;;;;5000079;28;20469;-54
2021/06/07 01:35:42;;;;;;;34.53;30.87;;;15.60;99.90;;;;;;4999852;28;20464;-54
2021/06/07 01:38:11;;;;;;;34.97;30.93;;;15.60;99.90;;;;;;5000287;28;20736;-52
2021/06/07 01:40:41;;;;;;;34.30;30.83;;;15.50;99.90;;;;;;4999581;28;20463;-55
2021/06/07 01:43:08;;;;;;;36.27;32.67;;;15.50;99.90;;;;;;4999690;28;20488;-55
2021/06/07 01:45:39;;;;;;;36.63;32.63;;;15.50;99.90;;;;;;5007406;28;20782;-58
2021/06/07 01:48:10;;;;;;;36.60;32.83;;;15.40;99.90;;;;;;4994222;28;20913;-57
2021/06/07 01:50:37;;;;;;;35.50;32.00;;;15.40;99.90;;;;;;5000151;28;20461;-58
2021/06/07 01:53:05;;;;;;;36.07;32.23;;;15.50;99.90;;;;;;4999054;28;20446;-58
2021/06/07 01:55:35;;;;;;;36.60;32.87;;;15.50;99.90;;;;;;4999897;28;20767;-56
2021/06/07 01:58:05;;;;;;;36.73;33.07;;;15.50;99.90;;;;;;4999442;28;20469;-52
2021/06/07 02:00:36;;;;;;;35.47;31.90;;;15.40;99.90;;;;;;4999140;28;20467;-54
2021/06/07 02:03:04;;;;;;;38.03;34.00;;;15.50;99.90;;;;;;4995390;28;20481;-55
2021/06/07 02:05:36;;;;;;;37.70;33.77;;;15.50;99.90;;;;;;4993937;28;20466;-54
2021/06/07 02:08:06;;;;;;;36.77;32.97;;;15.50;99.90;;;;;;4999585;28;20859;-54
2021/06/07 02:10:38;;;;;;;36.00;32.17;;;15.40;99.90;;;;;;4997565;28;20770;-56
2021/06/07 02:13:08;;;;;;;36.57;32.97;;;15.40;99.90;;;;;;4984804;28;20888;-58
2021/06/07 02:15:34;;;;;;;37.13;33.47;;;15.40;99.90;;;;;;4998627;28;20479;-58
2021/06/07 02:18:02;;;;;;;36.33;32.83;;;15.40;99.90;;;;;;4998553;28;20455;-58
2021/06/07 02:20:29;;;;;;;34.70;31.23;;;15.40;99.90;;;;;;4999340;28;20496;-58
2021/06/07 02:22:56;;;;;;;34.53;30.93;;;15.40;99.90;;;;;;4998035;28;20898;-58
2021/06/07 02:25:23;;;;;;;36.83;32.97;;;15.40;99.90;;;;;;4999014;28;20496;-58
2021/06/07 02:27:51;;;;;;;34.60;31.30;;;15.40;99.90;;;;;;4997908;28;20818;-57
2021/06/07 02:30:22;;;;;;;38.10;30.83;;;15.40;99.90;;;;;;4999290;28;20469;-55
2021/06/07 02:32:49;;;;;;;34.97;31.17;;;15.40;99.90;;;;;;4999123;28;20848;-57
2021/06/07 02:35:18;;;;;;;34.17;30.70;;;15.40;99.90;;;;;;4998080;28;20469;-53
2021/06/07 02:37:45;;;;;;;34.13;30.50;;;15.40;99.90;;;;;;4999090;28;20473;-53
2021/06/07 02:40:15;;;;;;;32.17;29.07;;;15.50;99.90;;;;;;4997475;28;20471;-50
2021/06/07 02:42:42;;;;;;;32.33;29.20;;;15.40;99.90;;;;;;4998677;28;20558;-50
2021/06/07 02:45:15;;;;;;;33.07;29.80;;;15.40;99.90;;;;;;4997039;28;20766;-51
2021/06/07 02:47:46;;;;;;;38.90;30.57;;;15.50;99.90;;;;;;4997140;28;20465;-53
2021/06/07 02:50:14;;;;;;;33.60;30.50;;;15.50;99.90;;;;;;4998457;28;20469;-50
2021/06/07 02:52:48;;;;;;;33.33;29.90;;;15.50;99.90;;;;;;4999013;28;20456;-50
2021/06/07 02:55:18;;;;;;;31.90;29.00;;;15.50;99.90;;;;;;4998756;28;20523;-53
2021/06/07 02:57:44;;;;;;;32.07;28.73;;;15.50;99.90;;;;;;4998951;28;20448;-51
2021/06/07 03:00:13;;;;;;;31.30;28.30;;;15.40;99.90;;;;;;4998657;28;20518;-53
2021/06/07 03:02:40;;;;;;;30.50;27.40;;;15.40;99.90;;;;;;4994513;28;20575;-50
2021/06/07 03:05:09;;;;;;;32.40;29.20;;;15.40;99.90;;;;;;4992928;28;20549;-54
2021/06/07 03:07:36;;;;;;;30.23;27.40;;;15.40;99.90;;;;;;4997727;28;20450;-51
2021/06/07 03:10:04;;;;;;;29.13;26.40;;;15.40;99.90;;;;;;4997936;28;20461;-55
2021/06/07 03:12:31;;;;;;;30.73;27.67;;;15.40;99.90;;;;;;4998219;28;20879;-54
2021/06/07 03:14:58;;;;;;;31.33;28.10;;;15.40;99.90;;;;;;4997121;28;20886;-56
2021/06/07 03:17:25;;;;;;;31.90;28.83;;;15.40;99.90;;;;;;4996762;28;20427;-57
2021/06/07 03:19:51;;;;;;;32.80;29.60;;;15.40;99.90;;;;;;4996713;28;20443;-58
2021/06/07 03:22:21;;;;;;;28.63;25.90;;;15.40;99.90;;;;;;4996835;28;20464;-51
2021/06/07 03:24:48;;;;;;;29.37;26.33;;;15.50;99.90;;;;;;4996985;28;20493;-49
2021/06/07 03:27:15;;;;;;;31.30;28.30;;;15.40;99.90;;;;;;4997488;28;20460;-50
2021/06/07 03:29:42;;;;;;;31.83;28.30;;;15.40;99.90;;;;;;4998049;28;20480;-55
2021/06/07 03:32:10;;;;;;;31.17;28.07;;;15.50;99.90;;;;;;4998216;28;20460;-48
2021/06/07 03:34:37;;;;;;;28.53;25.83;;;15.30;99.90;;;;;;4998197;28;20469;-51
2021/06/07 03:37:04;;;;;;;32.47;29.40;;;15.40;99.90;;;;;;4998498;28;20465;-49
2021/06/07 03:39:33;;;;;;;29.47;26.47;;;15.40;99.90;;;;;;4997737;28;20464;-51
2021/06/07 03:42:00;;;;;;;30.70;27.80;;;15.40;99.90;;;;;;4997851;28;20498;-56
2021/06/07 03:44:26;;;;;;;31.00;28.00;;;15.30;99.90;;;;;;4997628;28;20452;-51
2021/06/07 03:46:54;;;;;;;30.20;27.40;;;15.30;99.90;;;;;;4997498;28;20475;-53
2021/06/07 03:49:21;;;;;;;30.00;27.20;;;15.30;99.90;;;;;;4997803;28;20909;-49
2021/06/07 03:51:48;;;;;;;30.07;27.20;;;15.30;99.90;;;;;;5252394;23;20910;-51
2021/06/07 03:54:14;;;;;;;29.00;25.93;;;15.20;99.90;;;;;;4997698;28;20457;-49
2021/06/07 03:56:42;;;;;;;32.10;29.10;;;15.20;99.90;;;;;;4998031;28;20896;-51
2021/06/07 03:59:11;;;;;;;34.63;31.10;;;15.30;99.90;;;;;;4998061;28;20461;-51
2021/06/07 04:01:41;;;;;;;31.40;28.27;;;15.30;99.90;;;;;;4997924;28;20497;-57
2021/06/07 04:04:08;;;;;;;32.90;29.60;;;15.30;99.90;;;;;;4990099;28;20476;-48
2021/06/07 04:06:35;;;;;;;36.03;32.43;;;15.30;99.90;;;;;;4997263;28;20453;-49
2021/06/07 04:09:05;;;;;;;38.17;32.87;;;15.40;99.90;;;;;;4996805;28;20460;-52
2021/06/07 04:11:32;;;;;;;36.43;32.70;;;15.40;99.90;;;;;;4997699;28;20464;-54
2021/06/07 04:14:02;;;;;;;34.83;30.97;;;15.40;99.90;;;;;;4997081;28;20461;-50
2021/06/07 04:16:29;;;;;;;35.63;31.93;;;15.40;99.90;;;;;;4997588;28;20483;-53
2021/06/07 04:18:57;;;;;;;34.80;31.17;;;15.40;99.90;;;;;;4997451;28;20464;-53
2021/06/07 04:21:24;;;;;;;34.50;31.00;;;15.40;99.90;;;;;;4997539;28;20480;-50
2021/06/07 04:23:51;;;;;;;32.27;28.90;;;15.50;99.90;;;;;;4997430;28;20798;-52
2021/06/07 04:26:17;;;;;;;30.83;27.77;;;15.40;99.90;;;;;;4997577;28;20860;-52
2021/06/07 04:28:44;;;;;;;32.07;29.10;;;15.40;99.90;;;;;;4997086;28;20465;-51
2021/06/07 04:31:12;;;;;;;30.73;27.90;;;15.50;99.90;;;;;;4997673;28;20491;-49
2021/06/07 04:33:38;;;;;;;31.77;28.77;;;15.50;99.90;;;;;;4997945;28;20451;-52
2021/06/07 04:36:05;;;;;;;31.17;28.17;;;15.60;99.90;;;;;;5001101;28;20444;-56
2021/06/07 04:38:32;;;;;;;30.60;27.80;;;15.50;99.90;;;;;;5000689;28;20427;-55
2021/06/07 04:40:59;;;;;;;31.20;28.20;;;15.60;99.90;;;;;;5001104;28;20493;-48
2021/06/07 04:43:26;;;;;;;35.73;32.40;;;15.70;99.90;;;;;;5001363;28;20765;-48
2021/06/07 04:45:52;;;;;;;39.60;35.57;;;15.80;99.90;;;;;;5000707;28;20464;-51
2021/06/07 04:48:20;;;;;;;43.27;38.87;;;15.80;99.90;;;;;;5000880;28;20936;-56
2021/06/07 04:50:46;;;;;;;42.63;36.97;;;15.80;99.90;;;;;;5000908;28;20590;-55
2021/06/07 04:53:14;;;;;;;37.30;33.40;;;15.80;99.90;;;;;;5000635;28;20439;-51
2021/06/07 04:55:43;;;;;;;39.70;35.70;;;15.70;99.90;;;;;;5000541;28;20807;-51
2021/06/07 04:58:12;;;;;;;37.27;33.20;;;15.70;99.90;;;;;;5000664;28;20439;-54
2021/06/07 05:00:41;;;;;;;38.27;34.20;;;15.70;99.90;;;;;;5000317;28;20559;-52
2021/06/07 05:03:08;;;;;;;37.77;33.97;;;15.70;99.90;;;;;;4994704;28;20472;-57
2021/06/07 05:05:37;;;;;;;35.77;31.90;;;15.80;99.90;;;;;;4998145;28;20443;-54
2021/06/07 05:08:07;;;;;;;34.13;29.90;;;15.70;99.90;;;;;;4999868;28;20473;-52
2021/06/07 05:10:34;;;;;;;33.40;29.13;;;15.80;99.90;;;;;;5000363;28;20465;-56
2021/06/07 05:13:02;;;;;;;33.47;28.13;;;15.90;99.90;;;;;;5000843;28;20738;-52
2021/06/07 05:15:28;;;;;;;32.37;28.93;;;15.90;99.90;;;;;;4999841;28;20440;-56
2021/06/07 05:17:55;;;;;;;29.40;26.40;;;15.90;99.90;;;;;;5000324;28;20538;-58
2021/06/07 05:20:23;;;;;;;30.77;27.60;;;15.80;99.90;;;;;;4999951;28;20467;-57
2021/06/07 05:22:53;;;;;;;29.10;26.00;;;15.90;99.90;;;;;;4999945;28;20435;-54
2021/06/07 05:25:21;;;;;;;31.60;28.13;;;15.70;99.90;;;;;;5000290;28;20440;-54
2021/06/07 05:27:48;;;;;;;31.10;28.00;;;15.70;99.90;;;;;;5000555;28;20525;-56
2021/06/07 05:30:16;;;;;;;32.43;29.10;;;15.80;99.90;;;;;;5000011;28;20731;-55
2021/06/07 06:11:54;;;;;;;42.23;37.57;;;15.80;99.90;;;;;;4995077;28;20479;-50
2021/06/07 06:14:20;;;;;;;44.40;36.97;;;15.80;99.90;;;;;;4998051;28;20461;-54
2021/06/07 06:16:47;;;;;;;45.63;40.10;;;15.70;99.90;;;;;;4999489;28;20809;-56
2021/06/07 06:19:14;;;;;;;51.23;39.03;;;15.70;99.90;;;;;;5000147;28;20461;-49
2021/06/07 06:21:41;;;;;;;47.00;39.30;;;15.70;99.90;;;;;;4999900;28;20485;-48
2021/06/07 06:24:08;;;;;;;52.63;40.67;;;15.70;99.90;;;;;;5000743;28;20443;-52
2021/06/07 06:26:36;;;;;;;42.87;36.33;;;15.70;99.90;;;;;;4999506;28;20892;-54
2021/06/07 06:29:04;;;;;;;46.50;38.60;;;15.80;99.90;;;;;;4999219;28;20476;-57
2021/06/07 06:31:31;;;;;;;46.90;39.10;;;15.90;99.90;;;;;;4999493;28;20872;-56
2021/06/07 06:34:03;;;;;;;40.27;34.23;;;16.10;99.90;;;;;;4999301;28;20468;-47
2021/06/07 06:36:29;;;;;;;43.40;35.00;;;16.30;99.90;;;;;;4999117;28;20787;-54
2021/06/07 06:38:56;;;;;;;41.37;34.30;;;16.50;99.90;;;;;;4999106;28;20883;-51
2021/06/07 06:41:23;;;;;;;40.37;32.43;;;16.50;99.90;;;;;;4998831;28;20558;-54
2021/06/07 06:43:50;;;;;;;38.30;34.07;;;16.60;99.90;;;;;;4999112;28;20726;-49
2021/06/07 06:46:21;;;;;;;35.67;31.83;;;16.80;99.90;;;;;;4999199;28;20439;-50
2021/06/07 06:48:49;;;;;;;38.03;31.13;;;16.80;99.90;;;;;;4998743;28;20442;-53
2021/06/07 06:51:16;;;;;;;34.70;31.00;;;17.00;99.90;;;;;;4998775;28;20435;-50
2021/06/07 06:53:43;;;;;;;38.40;31.43;;;17.10;99.90;;;;;;4998941;28;20897;-50
2021/06/07 06:56:13;;;;;;;33.23;29.50;;;17.10;99.90;;;;;;4998456;28;20473;-50
2021/06/07 06:58:39;;;;;;;36.90;31.50;;;17.20;99.90;;;;;;4998491;28;20581;-47
2021/06/07 07:01:07;;;;;;;37.67;32.33;;;17.30;99.90;;;;;;4998510;28;20518;-49
2021/06/07 07:03:38;;;;;;;40.07;33.50;;;17.40;99.90;;;;;;4992709;28;20477;-49
2021/06/07 07:06:07;;;;;;;42.27;34.37;;;17.50;99.90;;;;;;4998059;28;20461;-54
2021/06/07 07:08:37;;;;;;;43.53;32.60;;;17.50;99.90;;;;;;4998012;28;20457;-54
2021/06/07 07:11:04;;;;;;;37.53;32.73;;;17.30;99.90;;;;;;4998072;28;20471;-54
2021/06/07 07:13:31;;;;;;;41.17;33.70;;;17.20;99.90;;;;;;4998027;28;20464;-51
2021/06/07 07:16:00;;;;;;;40.97;36.67;;;17.20;99.90;;;;;;4998540;28;20573;-53
2021/06/07 07:18:27;;;;;;;43.47;36.53;;;17.20;99.90;;;;;;4998890;28;20435;-53
2021/06/07 07:20:55;;;;;;;37.00;32.80;;;17.30;99.90;;;;;;4997535;28;20505;-55
2021/06/07 07:23:22;;;;;;;44.20;34.97;;;17.20;99.90;;;;;;4997781;28;20435;-54
2021/06/07 07:25:49;;;;;;;45.97;37.30;;;17.00;99.90;;;;;;4998221;28;20466;-48
2021/06/07 07:28:17;;;;;;;50.53;38.93;;;17.10;99.90;;;;;;4998347;28;20492;-53
2021/06/07 07:30:45;;;;;;;50.43;39.47;;;16.90;99.90;;;;;;4998575;28;20464;-54
2021/06/07 07:33:13;;;;;;;50.43;39.77;;;17.00;99.90;;;;;;4998001;28;20469;-53
2021/06/07 07:35:41;;;;;;;51.03;40.20;;;17.30;99.90;;;;;;4998215;28;20439;-50
2021/06/07 07:38:09;;;;;;;47.73;38.70;;;17.30;99.90;;;;;;4997999;28;20453;-54
2021/06/07 07:40:41;;;;;;;51.47;39.67;;;17.20;99.90;;;;;;4997618;28;20467;-49
2021/06/07 07:43:08;;;;;;;48.50;37.60;;;17.30;99.90;;;;;;4996221;28;20443;-48
2021/06/07 07:45:35;;;;;;;45.90;38.30;;;17.60;99.90;;;;;;4997959;28;20816;-53
2021/06/07 07:48:03;;;;;;;51.23;39.17;;;17.50;99.90;;;;;;4997991;28;20523;-57
2021/06/07 07:50:32;;;;;;;47.97;38.40;;;17.60;99.90;;;;;;4997742;28;20766;-54
2021/06/07 07:52:59;;;;;;;46.30;37.10;;;17.90;99.90;;;;;;4996967;28;20468;-46
2021/06/07 07:55:30;;;;;;;48.90;37.87;;;17.80;99.90;;;;;;4997867;28;20465;-50
2021/06/07 07:58:00;;;;;;;36.73;32.33;;;17.90;99.90;;;;;;4998362;28;20468;-51
2021/06/07 08:00:30;;;;;;;40.23;33.50;;;18.20;99.90;;;;;;4997439;28;20485;-48
2021/06/07 08:02:59;;;;;;;41.47;33.33;;;18.30;99.90;;;;;;4994369;28;20483;-47
2021/06/07 08:05:26;;;;;;;39.30;33.23;;;18.30;99.90;;;;;;4993439;28;20508;-48
2021/06/07 08:07:53;;;;;;;39.77;33.20;;;18.40;99.90;;;;;;4997528;28;20761;-54
2021/06/07 08:10:20;;;;;;;35.17;31.47;;;18.30;99.90;;;;;;5000386;28;20923;-49
2021/06/07 08:12:48;;;;;;;36.93;32.87;;;18.20;99.90;;;;;;5002000;28;20467;-53
2021/06/07 08:15:15;;;;;;;39.17;34.43;;;18.10;99.90;;;;;;5001268;28;20549;-53
2021/06/07 08:17:43;;;;;;;40.53;34.53;;;18.30;99.90;;;;;;5002242;28;20443;-56
2021/06/07 08:20:14;;;;;;;39.80;33.53;;;18.50;99.90;;;;;;5001141;28;20476;-51
2021/06/07 08:22:43;;;;;;;40.63;35.40;;;18.80;99.90;;;;;;5001682;28;20495;-51
2021/06/07 08:25:11;;;;;;;38.20;32.40;;;18.70;99.90;;;;;;5001402;28;20905;-53
2021/06/07 08:27:38;;;;;;;37.67;33.13;;;18.60;99.90;;;;;;5001652;28;20439;-51
2021/06/07 08:30:08;;;;;;;37.90;33.73;;;18.30;99.90;;;;;;5001872;28;20472;-53
2021/06/07 08:32:35;;;;;;;37.33;33.50;;;18.50;99.90;;;;;;5002074;28;20467;-51
2021/06/07 08:35:02;;;;;;;36.63;32.80;;;18.30;99.90;;;;;;5001219;28;20776;-56
2021/06/07 08:37:28;;;;;;;33.37;29.30;;;18.60;99.90;;;;;;5001461;28;20520;-55
2021/06/07 08:39:55;;;;;;;33.57;30.10;;;19.00;99.90;;;;;;5000871;28;20776;-48
2021/06/07 08:42:22;;;;;;;36.67;32.77;;;19.20;99.90;;;;;;5001511;28;20554;-50
2021/06/07 09:23:08;;;;;;;37.10;33.40;;;18.90;99.90;;;;;;4962368;23;20489;-55
2021/06/07 09:25:36;;;;;;;37.00;33.20;;;18.80;99.90;;;;;;5000913;28;20451;-52
2021/06/07 09:28:12;;;;;;;34.97;31.67;;;18.50;99.90;;;;;;5000675;28;20877;-52
2021/06/07 09:30:43;;;;;;;38.63;34.87;;;18.40;99.90;;;;;;4999734;28;20939;-50
2021/06/07 09:33:29;;;;;;;39.63;35.60;;;18.30;99.90;;;;;;5001113;28;20492;-47
2021/06/07 09:36:27;;;;;;;35.87;32.27;;;18.40;99.90;;;;;;5000286;28;20476;-45
2021/06/07 09:39:09;;;;;;;36.53;32.53;;;18.70;99.90;;;;;;5000295;28;20466;-51
2021/06/07 09:41:55;;;;;;;36.10;32.60;;;19.30;99.90;;;;;;4999628;28;20941;-52
2021/06/07 09:44:27;;;;;;;33.53;30.03;;;20.70;99.90;;;;;;4999768;28;20472;-55
2021/06/07 09:47:07;;;;;;;35.03;31.83;;;22.10;99.90;;;;;;4999656;28;20468;-54
2021/06/07 09:49:42;;;;;;;28.07;25.53;;;22.50;99.90;;;;;;5000043;28;20461;-53
2021/06/07 09:52:14;;;;;;;24.80;22.33;;;22.00;99.90;;;;;;4999726;28;20435;-55
2021/06/07 09:54:42;;;;;;;25.53;23.33;;;22.70;99.90;;;;;;5000240;28;20468;-55
2021/06/07 09:57:13;;;;;;;24.27;21.97;;;23.60;97.00;;;;;;4998811;28;20477;-55
2021/06/07 09:59:43;;;;;;;23.47;21.47;;;24.30;93.60;;;;;;4995208;28;20775;-52
2021/06/07 10:02:18;;;;;;;20.83;19.03;;;24.80;88.30;;;;;;4996172;28;20493;-54
2021/06/07 10:04:57;;;;;;;21.73;19.73;;;25.30;87.20;;;;;;4991221;28;20768;-55
2021/06/07 10:07:25;;;;;;;21.03;19.23;;;25.90;80.50;;;;;;4998147;28;20523;-54
2021/06/07 10:10:18;;;;;;;20.17;18.37;;;25.80;78.40;;;;;;4998979;28;20460;-54
2021/06/07 10:12:46;;;;;;;17.40;15.97;;;26.20;79.70;;;;;;4999650;28;20468;-56
2021/06/07 10:15:14;;;;;;;20.73;19.00;;;26.30;74.40;;;;;;4999554;28;20468;-49
2021/06/07 10:17:40;;;;;;;15.57;14.33;;;25.90;69.80;;;;;;4999848;28;20468;-56
2021/06/07 10:22:55;;;;;;;18.27;16.53;;;24.50;72.80;;;;;;4998572;28;20464;-56
2021/06/07 10:25:27;;;;;;;17.20;15.80;;;23.60;77.40;;;;;;4999320;28;20484;-56
2021/06/07 10:27:53;;;;;;;18.83;17.23;;;23.30;79.80;;;;;;4999516;28;20518;-56
2021/06/07 10:30:22;;;;;;;18.50;17.00;;;22.90;85.40;;;;;;4999894;28;20435;-53
2021/06/07 10:32:55;;;;;;;16.47;15.07;;;22.00;91.90;;;;;;4998962;28;20967;-54
2021/06/07 10:35:31;;;;;;;18.10;16.50;;;21.50;93.30;;;;;;4998302;28;20860;-52
2021/06/07 10:38:07;;;;;;;17.93;16.03;;;21.50;96.50;;;;;;4999114;28;20452;-50
2021/06/07 10:40:37;;;;;;;18.30;16.30;;;21.20;98.40;;;;;;4998319;28;20456;-50
2021/06/07 10:43:05;;;;;;;17.00;15.50;;;21.00;99.90;;;;;;4999237;28;20469;-51
2021/06/07 10:45:34;;;;;;;16.50;15.10;;;20.80;99.90;;;;;;4998841;28;20792;-52
2021/06/07 10:48:03;;;;;;;17.03;15.53;;;20.70;99.90;;;;;;4999287;28;20468;-51
2021/06/07 10:50:32;;;;;;;16.73;15.33;;;20.70;99.90;;;;;;4997997;28;20469;-52
2021/06/07 10:53:02;;;;;;;18.63;17.00;;;20.60;99.90;;;;;;4999105;28;20439;-51
2021/06/07 10:55:30;;;;;;;18.27;16.57;;;20.90;99.90;;;;;;4998884;28;20959;-46
2021/06/07 10:58:04;;;;;;;15.60;14.30;;;21.10;99.90;;;;;;4999205;28;20472;-48
2021/06/07 11:00:37;;;;;;;20.80;19.00;;;21.10;99.90;;;;;;4998645;28;20442;-47
2021/06/07 11:03:14;;;;;;;19.23;17.43;;;20.70;99.90;;;;;;4993860;28;20989;-54
2021/06/07 11:05:41;;;;;;;23.50;21.20;;;21.00;99.90;;;;;;4995654;28;20873;-49
2021/06/07 11:08:13;;;;;;;22.30;20.20;;;20.70;99.90;;;;;;4998452;28;20472;-52
2021/06/07 11:10:41;;;;;;;22.40;20.47;;;20.30;99.90;;;;;;4997911;28;20462;-52
2021/06/07 11:13:14;;;;;;;20.87;19.03;;;20.30;99.90;;;;;;4998222;28;20457;-54
2021/06/07 11:15:42;;;;;;;25.50;23.23;;;20.50;99.90;;;;;;4998292;28;20775;-47
2021/06/07 11:18:23;;;;;;;25.20;22.77;;;20.30;99.90;;;;;;4998306;28;20542;-48
2021/06/07 11:20:51;;;;;;;24.87;22.67;;;20.30;99.90;;;;;;4998348;28;20942;-51
2021/06/07 11:23:28;;;;;;;24.10;22.00;;;20.30;99.90;;;;;;4997832;28;20485;-52
2021/06/07 11:25:56;;;;;;;24.57;22.20;;;20.30;99.90;;;;;;4998941;28;20579;-49
2021/06/07 11:28:36;;;;;;;26.87;24.17;;;20.50;99.90;;;;;;4999389;28;20897;-52
2021/06/07 11:31:05;;;;;;;30.70;27.90;;;20.30;99.90;;;;;;4997968;28;20801;-51
2021/06/07 11:33:54;;;;;;;30.00;27.30;;;19.80;99.90;;;;;;4998270;28;20464;-53
2021/06/07 11:36:43;;;;;;;27.67;25.07;;;20.00;99.90;;;;;;4998139;28;20471;-45
2021/06/07 11:39:13;;;;;;;26.87;24.23;;;20.10;99.90;;;;;;4997864;28;20453;-47
2021/06/07 11:41:52;;;;;;;28.37;25.97;;;20.00;99.90;;;;;;4997571;28;20478;-45
2021/06/07 11:44:50;;;;;;;28.70;26.00;;;20.00;99.90;;;;;;4997900;28;20508;-48
2021/06/07 11:47:17;;;;;;;27.73;25.27;;;19.80;99.90;;;;;;4998587;28;20515;-47
2021/06/07 11:50:06;;;;;;;27.17;24.50;;;19.30;99.90;;;;;;4998467;28;20535;-45
2021/06/07 11:52:50;;;;;;;27.87;25.37;;;19.20;99.90;;;;;;4998271;28;20454;-48
2021/06/07 11:55:28;;;;;;;28.93;26.33;;;18.80;99.90;;;;;;4998744;28;20559;-45
2021/06/07 12:37:30;;;;;;;16.53;15.10;;;18.70;99.90;;;;;;4995599;28;20501;-56
2021/06/07 12:40:11;;;;;;;15.90;14.50;;;18.70;99.90;;;;;;4996954;28;20438;-56
2021/06/07 12:42:37;;;;;;;15.97;14.50;;;18.70;99.90;;;;;;4996934;28;20500;-52
2021/06/07 12:45:06;;;;;;;14.83;13.60;;;18.60;99.90;;;;;;4997093;28;20465;-55
2021/06/07 12:47:35;;;;;;;14.00;12.80;;;18.70;99.90;;;;;;4997030;28;20473;-54
2021/06/07 12:50:14;;;;;;;14.90;13.70;;;18.70;99.90;;;;;;4996386;28;20472;-56
2021/06/07 12:52:46;;;;;;;15.93;14.47;;;18.60;99.90;;;;;;4997248;28;20465;-54
2021/06/07 12:55:18;;;;;;;14.40;13.20;;;18.70;99.90;;;;;;4998340;28;20464;-54
2021/06/07 12:57:48;;;;;;;13.77;12.47;;;18.80;99.90;;;;;;5000627;28;20443;-51
2021/06/07 13:37:12;;;;;;;11.63;10.47;;;19.50;99.90;;;;;;3240441;23;20489;-47
2021/06/07 13:39:42;;;;;;;11.67;10.77;;;19.80;99.90;;;;;;4981231;28;20789;-50
2021/06/07 13:42:10;;;;;;;11.23;10.33;;;19.70;99.90;;;;;;4980956;28;20536;-50
2021/06/07 13:44:55;;;;;;;11.27;10.37;;;19.20;99.90;;;;;;4980917;28;20473;-48
2021/06/07 13:47:25;;;;;;;12.90;11.60;;;19.40;99.90;;;;;;4980775;28;20469;-49
2021/06/07 13:50:14;;;;;;;10.90;9.90;;;19.50;99.90;;;;;;4983192;28;20464;-47
2021/06/07 13:52:54;;;;;;;10.80;9.90;;;19.30;99.90;;;;;;4984695;28;20468;-50
2021/06/07 13:55:27;;;;;;;12.63;11.30;;;19.40;99.90;;;;;;4984475;28;20555;-52
2021/06/07 13:58:09;;;;;;;11.80;10.90;;;19.30;99.90;;;;;;4980459;28;20891;-51
2021/06/07 14:00:39;;;;;;;12.47;11.37;;;19.30;99.90;;;;;;4983302;28;20473;-51
2021/06/07 14:03:09;;;;;;;12.40;11.20;;;19.50;99.90;;;;;;4973455;28;20476;-52
2021/06/07 14:05:38;;;;;;;13.37;12.37;;;19.60;99.90;;;;;;4982062;28;20564;-49
2021/06/07 14:08:12;;;;;;;13.53;12.30;;;19.40;99.90;;;;;;4994536;28;20761;-54
2021/06/07 14:10:42;;;;;;;12.90;11.90;;;19.50;99.90;;;;;;4980081;28;20466;-48
2021/06/07 14:13:08;;;;;;;13.80;12.40;;;19.70;99.90;;;;;;4979958;28;20462;-51
2021/06/07 14:15:38;;;;;;;13.07;12.07;;;19.90;99.90;;;;;;4978858;28;20770;-54
2021/06/07 14:18:08;;;;;;;13.33;12.23;;;19.80;99.90;;;;;;4980360;28;20487;-48
2021/06/07 14:20:35;;;;;;;13.43;12.27;;;20.10;99.90;;;;;;4980051;28;20554;-49
2021/06/07 14:25:47;;;;;;;11.53;10.60;;;20.10;99.90;;;;;;4962619;28;20522;-49
2021/06/07 14:28:15;;;;;;;13.87;12.80;;;20.20;99.90;;;;;;4979580;28;20465;-51
2021/06/07 14:30:43;;;;;;;13.07;12.03;;;20.00;99.90;;;;;;4979371;28;20469;-54
2021/06/07 14:33:10;;;;;;;13.37;12.27;;;20.20;99.90;;;;;;4979019;28;20765;-50
2021/06/07 14:35:37;;;;;;;13.87;12.67;;;20.20;99.90;;;;;;4984791;28;20551;-53
2021/06/07 14:38:07;;;;;;;13.37;11.97;;;20.20;99.90;;;;;;4990354;28;20505;-50
2021/06/07 14:40:35;;;;;;;12.40;11.30;;;19.70;99.90;;;;;;4978374;28;20555;-53
2021/06/07 14:43:04;;;;;;;12.30;11.30;;;19.70;99.90;;;;;;4979009;28;20505;-50
2021/06/07 14:45:33;;;;;;;12.87;11.77;;;19.90;99.90;;;;;;4977978;28;20482;-54
2021/06/07 14:48:00;;;;;;;12.60;11.50;;;20.10;99.90;;;;;;4979371;28;20469;-50
2021/06/07 14:50:27;;;;;;;12.37;11.37;;;20.40;99.90;;;;;;4977903;28;20466;-51
2021/06/07 14:53:02;;;;;;;12.10;11.07;;;20.40;99.90;;;;;;4978674;28;20470;-57
2021/06/07 14:55:28;;;;;;;13.13;11.83;;;20.40;99.90;;;;;;4982045;28;20471;-51
2021/06/07 14:58:00;;;;;;;12.10;11.20;;;20.50;99.90;;;;;;4985040;28;20533;-55
2021/06/07 15:00:28;;;;;;;12.10;11.10;;;20.50;99.90;;;;;;4978661;28;20470;-51
2021/06/07 15:02:55;;;;;;;13.83;12.63;;;20.50;99.90;;;;;;4973297;28;20508;-50
2021/06/07 15:05:22;;;;;;;11.80;10.73;;;20.50;99.90;;;;;;4981920;28;20499;-55
2021/06/07 15:07:52;;;;;;;13.10;12.00;;;20.40;99.90;;;;;;4980384;28;20794;-54
2021/06/07 15:10:22;;;;;;;14.27;13.07;;;20.40;99.90;;;;;;4978268;28;20795;-55
2021/06/07 15:12:49;;;;;;;13.27;12.27;;;20.20;99.90;;;;;;4979585;28;20561;-55
2021/06/07 15:15:19;;;;;;;13.63;12.33;;;20.10;99.90;;;;;;4981869;28;20473;-49
2021/06/07 15:17:47;;;;;;;15.57;14.20;;;20.20;99.90;;;;;;4978599;28;20461;-48
2021/06/07 15:20:14;;;;;;;14.57;13.37;;;20.00;99.90;;;;;;4977689;28;20465;-51